RKTH/KPO METAR and TAF weather

Enter ICAO airport designator
Station Type Date Time Source
RKTH METAR 2020/09/17 16:00 UTC NOAA

RKTH 171600Z 22004KT 4800 -RA BR SCT030 OVC100 19/19 Q1010 RMK CIG100 SLP108 8/72/ 9/35/


Station Type Date Time Source
RKTH Decoded METAR 2020/09/17 16:00 UTC NOAA

Pohang Ab, Korea, South (RKTH) 35-59N 129-25E 20M
Sep 17, 2020 - 12:00 PM EDT / 2020.09.17 1600 UTC
Wind: from the SW (220 degrees) at 5 MPH (4 KT):0
Visibility: 2 mile(s):0
Sky conditions: overcast
Weather: light rain; mist
Temperature: 66 F (19 C)
Dew Point: 66 F (19 C)
Relative Humidity: 100%
Pressure (altimeter): 29.83 in. Hg (1010 hPa)
ob: RKTH 171600Z 22004KT 4800 -RA BR SCT030 OVC100 19/19 Q1010 RMK CIG100 SLP108 8/72/ 9/35/
cycle: 16

Station Type Date Time Source
RKTH TAF 2021/02/22 00:22 UTC NOAA

TAF RKTH 212300Z 2200/2306 24010KT 9999 SCT030 SCT200 TX21/2206Z TN00/2221Z
BECMG 2205/2206 27010G20KT

Example: see airport list